»·PEaware :: N757PC KSMO-KPSP

N757PC :: KSMO-KPSP

FLIGHT INFORMATION

Flight Status: Arrived
Operator: Privately registered:
United States
More flights under this callsign
Pilot: Duane J. (9702)
Aircraft: CESSNA 172 SKYHAWK
(C172)
More flights by this aircraft type
Origin: KSMO Santa Monica Mun
United States
Destination: KPSP Palm Springs Intl
United States
More flights between these airports :: More routes between these airports
Route: +SMO VNY V186 PDZ V388 PSP
File this flight plan on PilotEdge
Remarks:
Altitude:
(Current/Filed)
11,000ft
Speed:
(Current/Filed)
110kts
Departed: 07-Oct-17 05:02 PM
Arrived: 07-Oct-17 06:18 PM
Distance/Time
Traveled:
98nm/1:15
Distance/Time
To Go:
Arrived

Flight Plot

Page will automatically refresh every two minutes.


Map Options




Map Legend


Flown Route
Filed Route
Departure Airport
Arrival Airport
Navaid (VOR, NDB)
Fix

Horizontal Profiles

Position Reports

Time Latitude Longitude Heading Altitude Ground
Speed
07-Oct-17 16:49 34.013081 -118.452956 135 178ft 0kts
07-Oct-17 16:50 34.013078 -118.452953 135 178ft 0kts
07-Oct-17 16:51 34.013076 -118.452950 135 178ft 0kts
07-Oct-17 16:52 34.013074 -118.452947 135 178ft 0kts
07-Oct-17 16:53 34.013072 -118.452945 135 178ft 0kts
07-Oct-17 16:54 34.013070 -118.452942 135 178ft 0kts
07-Oct-17 16:55 34.013067 -118.452939 135 178ft 0kts
07-Oct-17 16:56 34.013065 -118.452937 135 178ft 0kts
07-Oct-17 16:57 34.013063 -118.452935 135 178ft 0kts
07-Oct-17 16:58 34.013061 -118.452932 135 178ft 0kts
07-Oct-17 16:59 34.013059 -118.452930 135 178ft 0kts
07-Oct-17 17:00 34.013044 -118.452738 39 178ft 4kts
07-Oct-17 17:01 34.012917 -118.453589 14 178ft 7kts
07-Oct-17 17:02 34.016324 -118.449639 43 178ft 19kts
07-Oct-17 17:03 34.019908 -118.445239 299 178ft 5kts
07-Oct-17 17:04 34.019897 -118.445325 272 178ft 1kts
07-Oct-17 17:05 34.019978 -118.445402 333 178ft 0kts
07-Oct-17 17:06 34.019223 -118.447287 223 178ft 47kts
07-Oct-17 17:07 34.007209 -118.465437 260 856ft 77kts
07-Oct-17 17:08 34.005367 -118.491104 262 1654ft 74kts
07-Oct-17 17:09 34.003938 -118.511038 261 2291ft 71kts
07-Oct-17 17:10 34.001564 -118.541253 262 2903ft 89kts
07-Oct-17 17:11 34.011895 -118.556562 12 3466ft 91kts
07-Oct-17 17:13 34.028900 -118.532572 51 4306ft 75kts
07-Oct-17 17:14 34.041425 -118.510372 52 4846ft 84kts
07-Oct-17 17:15 34.055403 -118.485886 52 5365ft 93kts
07-Oct-17 17:15 34.069132 -118.465723 31 5829ft 91kts
07-Oct-17 17:16 34.091871 -118.469602 342 6405ft 81kts
07-Oct-17 17:18 34.117179 -118.474423 346 7055ft 77kts
07-Oct-17 17:18 34.135057 -118.477361 348 7470ft 78kts
07-Oct-17 17:19 34.156263 -118.480726 350 7964ft 74kts
07-Oct-17 17:20 34.174955 -118.471980 52 8387ft 84kts
07-Oct-17 17:21 34.188184 -118.448356 52 8802ft 86kts
07-Oct-17 17:22 34.201617 -118.423937 52 9210ft 88kts
07-Oct-17 17:23 34.194515 -118.396454 112 9607ft 91kts
07-Oct-17 17:24 34.186000 -118.367584 110 9994ft 92kts
07-Oct-17 17:25 34.176908 -118.337905 111 10378ft 94kts
07-Oct-17 17:26 34.167579 -118.307283 111 10703ft 99kts
07-Oct-17 17:27 34.157692 -118.274791 111 10975ft 109kts
07-Oct-17 17:28 34.146723 -118.238848 111 10987ft 113kts
07-Oct-17 17:29 34.135867 -118.203224 111 10995ft 113kts
07-Oct-17 17:30 34.124892 -118.167282 111 10995ft 114kts
07-Oct-17 17:31 34.113891 -118.131365 111 10997ft 114kts
07-Oct-17 17:32 34.103920 -118.098759 111 10998ft 114kts
07-Oct-17 17:33 34.092873 -118.062761 111 11000ft 114kts
07-Oct-17 17:34 34.081825 -118.026834 111 11002ft 114kts
07-Oct-17 17:35 34.070752 -117.990793 111 11000ft 114kts
07-Oct-17 17:36 34.059690 -117.954819 111 11001ft 114kts
07-Oct-17 17:37 34.048655 -117.918943 111 11005ft 114kts
07-Oct-17 17:38 34.037570 -117.883072 111 11010ft 113kts
07-Oct-17 17:39 34.026521 -117.847330 111 11015ft 113kts
07-Oct-17 17:40 34.015473 -117.811545 111 11019ft 113kts
07-Oct-17 17:41 34.004388 -117.775805 111 11018ft 114kts
07-Oct-17 17:42 33.992665 -117.740236 114 11014ft 114kts
07-Oct-17 17:43 33.980139 -117.704841 114 11006ft 114kts
07-Oct-17 17:44 33.967681 -117.669464 114 11000ft 114kts
07-Oct-17 17:45 33.955232 -117.634196 114 10999ft 114kts
07-Oct-17 17:46 33.942754 -117.598842 114 10997ft 114kts
07-Oct-17 17:47 33.930304 -117.563600 114 10994ft 114kts
07-Oct-17 17:48 33.918281 -117.528127 97 10992ft 114kts
07-Oct-17 17:49 33.919940 -117.490446 85 11003ft 113kts
07-Oct-17 17:50 33.921580 -117.452559 85 11001ft 113kts
07-Oct-17 17:51 33.923147 -117.414543 85 11001ft 113kts
07-Oct-17 17:52 33.924663 -117.376714 85 11005ft 113kts
07-Oct-17 17:53 33.926241 -117.338895 85 11012ft 113kts
07-Oct-17 17:54 33.927919 -117.301028 85 11019ft 113kts
07-Oct-17 17:55 33.929576 -117.263279 85 11023ft 113kts
07-Oct-17 17:56 33.931208 -117.225384 85 11028ft 112kts
07-Oct-17 17:57 33.932823 -117.187704 85 11034ft 113kts
07-Oct-17 17:58 33.934396 -117.149780 85 11038ft 113kts
07-Oct-17 17:59 33.935764 -117.111953 85 11043ft 113kts
07-Oct-17 18:00 33.937134 -117.074183 85 11050ft 112kts
07-Oct-17 18:01 33.938470 -117.036565 85 11059ft 112kts
07-Oct-17 18:02 33.939879 -116.998634 85 10811ft 120kts
07-Oct-17 18:03 33.941451 -116.956083 86 10234ft 130kts
07-Oct-17 18:04 33.940264 -116.915590 92 9683ft 131kts
07-Oct-17 18:05 33.938694 -116.871662 92 9144ft 126kts
07-Oct-17 18:06 33.937391 -116.832608 92 9147ft 113kts
07-Oct-17 18:07 33.936099 -116.794687 92 9138ft 113kts
07-Oct-17 18:08 33.930493 -116.757197 101 9121ft 114kts
07-Oct-17 18:09 33.923970 -116.719607 101 9100ft 114kts
07-Oct-17 18:10 33.913254 -116.683645 112 9076ft 114kts
07-Oct-17 18:11 33.901692 -116.647876 112 9051ft 114kts
07-Oct-17 18:12 33.891597 -116.611523 107 8575ft 113kts
07-Oct-17 18:13 33.882875 -116.575663 106 7973ft 112kts
07-Oct-17 18:14 33.873557 -116.537682 107 7398ft 121kts
07-Oct-17 18:15 33.859131 -116.503010 134 6201ft 118kts
07-Oct-17 18:16 33.840054 -116.469955 137 4427ft 127kts
07-Oct-17 18:17 33.815224 -116.438301 132 2440ft 130kts
07-Oct-17 18:18 33.790251 -116.431913 222 1523ft 102kts
07-Oct-17 18:19 33.784154 -116.458301 311 1493ft 87kts
07-Oct-17 18:20 33.799916 -116.477912 321 1227ft 80kts
07-Oct-17 18:21 33.816180 -116.492870 327 721ft 70kts
07-Oct-17 18:22 33.829309 -116.504437 319 480ft 25kts
07-Oct-17 18:23 33.829975 -116.504464 38 480ft 0kts

Navigation Log

Ident Type
1. KSMO Airport
2. SMO Navaid
3. VNY Navaid
4. DARTS Fix
5. PURMS Fix
6. ELMOO Fix
7. ITSME Fix
8. PIRRO Fix
9. ADAMM Fix
10. BAYJY Fix
11. TIFNI Fix
12. PDZ Navaid
13. KNDAL Fix
14. LENHO Fix
15. ACINS Fix
16. DEWAY Fix
17. PSP Navaid
18. KPSP Airport